sensor_id;sensor_type;location;lat;lon;timestamp;temperature;humidity
66373;SHT30;53168;51.146;17.120;2023-09-19T00:02:04;20.42;69.98
66373;SHT30;53168;51.146;17.120;2023-09-19T00:04:34;20.33;70.19
66373;SHT30;53168;51.146;17.120;2023-09-19T00:07:04;20.24;70.39
66373;SHT30;53168;51.146;17.120;2023-09-19T00:09:34;20.16;70.67
66373;SHT30;53168;51.146;17.120;2023-09-19T00:12:07;20.09;70.89
66373;SHT30;53168;51.146;17.120;2023-09-19T00:14:37;20.04;71.00
66373;SHT30;53168;51.146;17.120;2023-09-19T00:17:06;19.99;71.10
66373;SHT30;53168;51.146;17.120;2023-09-19T00:19:38;19.95;71.25
66373;SHT30;53168;51.146;17.120;2023-09-19T00:22:10;19.90;71.33
66373;SHT30;53168;51.146;17.120;2023-09-19T00:24:41;19.89;71.49
66373;SHT30;53168;51.146;17.120;2023-09-19T00:27:11;19.86;71.64
66373;SHT30;53168;51.146;17.120;2023-09-19T00:29:40;19.82;71.74
66373;SHT30;53168;51.146;17.120;2023-09-19T00:32:10;19.80;71.81
66373;SHT30;53168;51.146;17.120;2023-09-19T00:34:39;19.77;71.85
66373;SHT30;53168;51.146;17.120;2023-09-19T00:37:13;19.75;71.89
66373;SHT30;53168;51.146;17.120;2023-09-19T00:39:43;19.73;71.99
66373;SHT30;53168;51.146;17.120;2023-09-19T00:42:19;19.71;72.18
66373;SHT30;53168;51.146;17.120;2023-09-19T00:44:49;19.69;72.26
66373;SHT30;53168;51.146;17.120;2023-09-19T00:47:19;19.68;72.26
66373;SHT30;53168;51.146;17.120;2023-09-19T00:49:50;19.67;72.41
66373;SHT30;53168;51.146;17.120;2023-09-19T00:52:21;19.64;72.43
66373;SHT30;53168;51.146;17.120;2023-09-19T00:54:52;19.62;72.51
66373;SHT30;53168;51.146;17.120;2023-09-19T00:57:23;19.61;72.62
66373;SHT30;53168;51.146;17.120;2023-09-19T00:59:55;19.59;72.69
66373;SHT30;53168;51.146;17.120;2023-09-19T01:02:27;19.59;72.75
66373;SHT30;53168;51.146;17.120;2023-09-19T01:04:59;19.56;72.84
66373;SHT30;53168;51.146;17.120;2023-09-19T01:07:31;19.54;72.91
66373;SHT30;53168;51.146;17.120;2023-09-19T01:10:03;19.54;72.91
66373;SHT30;53168;51.146;17.120;2023-09-19T01:12:48;19.53;72.97
66373;SHT30;53168;51.146;17.120;2023-09-19T01:15:38;19.52;72.99
66373;SHT30;53168;51.146;17.120;2023-09-19T01:18:26;19.52;72.90
66373;SHT30;53168;51.146;17.120;2023-09-19T01:21:11;19.53;72.99
66373;SHT30;53168;51.146;17.120;2023-09-19T01:24:23;19.55;73.02
66373;SHT30;53168;51.146;17.120;2023-09-19T01:27:34;19.53;73.23
66373;SHT30;53168;51.146;17.120;2023-09-19T01:30:26;19.52;73.26
66373;SHT30;53168;51.146;17.120;2023-09-19T01:33:07;19.52;73.38
66373;SHT30;53168;51.146;17.120;2023-09-19T01:35:39;19.51;73.39
66373;SHT30;53168;51.146;17.120;2023-09-19T01:38:09;19.51;73.40
66373;SHT30;53168;51.146;17.120;2023-09-19T01:40:43;19.52;73.60
66373;SHT30;53168;51.146;17.120;2023-09-19T01:43:22;19.47;73.67
66373;SHT30;53168;51.146;17.120;2023-09-19T01:46:07;19.43;73.90
66373;SHT30;53168;51.146;17.120;2023-09-19T01:48:49;19.38;74.19
66373;SHT30;53168;51.146;17.120;2023-09-19T01:51:37;19.32;74.36
66373;SHT30;53168;51.146;17.120;2023-09-19T01:54:23;19.26;74.71
66373;SHT30;53168;51.146;17.120;2023-09-19T01:57:26;19.14;75.03
66373;SHT30;53168;51.146;17.120;2023-09-19T02:00:03;19.04;75.39
66373;SHT30;53168;51.146;17.120;2023-09-19T02:02:47;18.95;75.51
66373;SHT30;53168;51.146;17.120;2023-09-19T02:05:24;18.90;75.55
66373;SHT30;53168;51.146;17.120;2023-09-19T02:07:56;18.88;75.71
66373;SHT30;53168;51.146;17.120;2023-09-19T02:10:27;18.85;75.79
66373;SHT30;53168;51.146;17.120;2023-09-19T02:12:57;18.82;75.98
66373;SHT30;53168;51.146;17.120;2023-09-19T02:15:27;18.78;76.11
66373;SHT30;53168;51.146;17.120;2023-09-19T02:17:56;18.75;76.23
66373;SHT30;53168;51.146;17.120;2023-09-19T02:20:28;18.72;76.53
66373;SHT30;53168;51.146;17.120;2023-09-19T02:22:57;18.69;76.60
66373;SHT30;53168;51.146;17.120;2023-09-19T02:25:36;18.67;76.65
66373;SHT30;53168;51.146;17.120;2023-09-19T02:28:06;18.64;76.65
66373;SHT30;53168;51.146;17.120;2023-09-19T02:30:37;18.63;76.69
66373;SHT30;53168;51.146;17.120;2023-09-19T02:33:06;18.63;76.83
66373;SHT30;53168;51.146;17.120;2023-09-19T02:35:36;18.61;76.90
66373;SHT30;53168;51.146;17.120;2023-09-19T02:38:06;18.59;77.00
66373;SHT30;53168;51.146;17.120;2023-09-19T02:40:35;18.57;77.10
66373;SHT30;53168;51.146;17.120;2023-09-19T02:43:05;18.56;77.15
66373;SHT30;53168;51.146;17.120;2023-09-19T02:45:37;18.57;77.16
66373;SHT30;53168;51.146;17.120;2023-09-19T02:48:07;18.58;77.22
66373;SHT30;53168;51.146;17.120;2023-09-19T02:50:37;18.58;77.30
66373;SHT30;53168;51.146;17.120;2023-09-19T02:53:08;18.58;77.30
66373;SHT30;53168;51.146;17.120;2023-09-19T02:55:42;18.61;77.30
66373;SHT30;53168;51.146;17.120;2023-09-19T02:58:11;18.64;77.24
66373;SHT30;53168;51.146;17.120;2023-09-19T03:00:43;18.64;77.26
66373;SHT30;53168;51.146;17.120;2023-09-19T03:03:15;18.64;77.35
66373;SHT30;53168;51.146;17.120;2023-09-19T03:05:45;18.63;77.33
66373;SHT30;53168;51.146;17.120;2023-09-19T03:08:17;18.61;77.38
66373;SHT30;53168;51.146;17.120;2023-09-19T03:10:48;18.61;77.47
66373;SHT30;53168;51.146;17.120;2023-09-19T03:13:18;18.65;77.50
66373;SHT30;53168;51.146;17.120;2023-09-19T03:15:48;18.66;77.49
66373;SHT30;53168;51.146;17.120;2023-09-19T03:18:21;18.67;77.59
66373;SHT30;53168;51.146;17.120;2023-09-19T03:20:54;18.68;77.61
66373;SHT30;53168;51.146;17.120;2023-09-19T03:23:24;18.70;77.63
66373;SHT30;53168;51.146;17.120;2023-09-19T03:25:54;18.72;77.70
66373;SHT30;53168;51.146;17.120;2023-09-19T03:28:25;18.74;77.70
66373;SHT30;53168;51.146;17.120;2023-09-19T03:31:01;18.75;77.70
66373;SHT30;53168;51.146;17.120;2023-09-19T03:33:32;18.76;77.71
66373;SHT30;53168;51.146;17.120;2023-09-19T03:36:05;18.75;77.81
66373;SHT30;53168;51.146;17.120;2023-09-19T03:38:35;18.72;77.96
66373;SHT30;53168;51.146;17.120;2023-09-19T03:41:05;18.70;78.09
66373;SHT30;53168;51.146;17.120;2023-09-19T03:43:36;18.69;78.15
66373;SHT30;53168;51.146;17.120;2023-09-19T03:46:06;18.66;78.20
66373;SHT30;53168;51.146;17.120;2023-09-19T03:48:37;18.64;78.26
66373;SHT30;53168;51.146;17.120;2023-09-19T03:51:07;18.62;78.34
66373;SHT30;53168;51.146;17.120;2023-09-19T03:53:37;18.58;78.43
66373;SHT30;53168;51.146;17.120;2023-09-19T03:56:07;18.56;78.51
66373;SHT30;53168;51.146;17.120;2023-09-19T03:58:37;18.54;78.50
66373;SHT30;53168;51.146;17.120;2023-09-19T04:01:08;18.53;78.50
66373;SHT30;53168;51.146;17.120;2023-09-19T04:03:39;18.52;78.56
66373;SHT30;53168;51.146;17.120;2023-09-19T04:06:16;18.50;78.60
66373;SHT30;53168;51.146;17.120;2023-09-19T04:08:47;18.51;78.61
66373;SHT30;53168;51.146;17.120;2023-09-19T04:11:17;18.52;78.67
66373;SHT30;53168;51.146;17.120;2023-09-19T04:13:49;18.52;78.69
66373;SHT30;53168;51.146;17.120;2023-09-19T04:16:19;18.53;78.71
66373;SHT30;53168;51.146;17.120;2023-09-19T04:18:49;18.54;78.77
66373;SHT30;53168;51.146;17.120;2023-09-19T04:21:19;18.54;78.78
66373;SHT30;53168;51.146;17.120;2023-09-19T04:23:49;18.53;78.80
66373;SHT30;53168;51.146;17.120;2023-09-19T04:26:18;18.53;78.87
66373;SHT30;53168;51.146;17.120;2023-09-19T04:28:50;18.52;78.93
66373;SHT30;53168;51.146;17.120;2023-09-19T04:31:20;18.52;78.99
66373;SHT30;53168;51.146;17.120;2023-09-19T04:33:50;18.51;79.05
66373;SHT30;53168;51.146;17.120;2023-09-19T04:36:21;18.51;79.08
66373;SHT30;53168;51.146;17.120;2023-09-19T04:39:04;18.52;79.13
66373;SHT30;53168;51.146;17.120;2023-09-19T04:41:35;18.53;79.13
66373;SHT30;53168;51.146;17.120;2023-09-19T04:44:07;18.56;79.15
66373;SHT30;53168;51.146;17.120;2023-09-19T04:46:37;18.53;79.19
66373;SHT30;53168;51.146;17.120;2023-09-19T04:49:07;18.52;79.28
66373;SHT30;53168;51.146;17.120;2023-09-19T04:51:37;18.51;79.35
66373;SHT30;53168;51.146;17.120;2023-09-19T04:54:07;18.50;79.41
66373;SHT30;53168;51.146;17.120;2023-09-19T04:56:37;18.50;79.50
66373;SHT30;53168;51.146;17.120;2023-09-19T04:59:08;18.48;79.53
66373;SHT30;53168;51.146;17.120;2023-09-19T05:01:39;18.47;79.63
66373;SHT30;53168;51.146;17.120;2023-09-19T05:04:09;18.46;79.70
66373;SHT30;53168;51.146;17.120;2023-09-19T05:06:38;18.44;79.71
66373;SHT30;53168;51.146;17.120;2023-09-19T05:09:11;18.44;79.79
66373;SHT30;53168;51.146;17.120;2023-09-19T05:11:41;18.43;79.84
66373;SHT30;53168;51.146;17.120;2023-09-19T05:14:12;18.41;79.89
66373;SHT30;53168;51.146;17.120;2023-09-19T05:16:41;18.43;79.94
66373;SHT30;53168;51.146;17.120;2023-09-19T05:19:11;18.45;79.99
66373;SHT30;53168;51.146;17.120;2023-09-19T05:47:24;18.79;79.80
66373;SHT30;53168;51.146;17.120;2023-09-19T05:50:00;18.79;79.81
66373;SHT30;53168;51.146;17.120;2023-09-19T05:52:37;18.79;79.79
66373;SHT30;53168;51.146;17.120;2023-09-19T05:55:15;18.80;79.80
66373;SHT30;53168;51.146;17.120;2023-09-19T05:57:53;18.81;79.80
66373;SHT30;53168;51.146;17.120;2023-09-19T06:00:29;18.83;79.90
66373;SHT30;53168;51.146;17.120;2023-09-19T06:03:09;18.86;79.91
66373;SHT30;53168;51.146;17.120;2023-09-19T06:05:49;18.91;79.91
66373;SHT30;53168;51.146;17.120;2023-09-19T06:08:29;18.94;79.89
66373;SHT30;53168;51.146;17.120;2023-09-19T06:11:04;19.00;79.90
66373;SHT30;53168;51.146;17.120;2023-09-19T06:13:41;19.09;79.82
66373;SHT30;53168;51.146;17.120;2023-09-19T06:16:24;19.21;79.76
66373;SHT30;53168;51.146;17.120;2023-09-19T06:19:02;19.33;79.55
66373;SHT30;53168;51.146;17.120;2023-09-19T06:21:43;19.46;79.28
66373;SHT30;53168;51.146;17.120;2023-09-19T06:24:17;19.56;79.04
66373;SHT30;53168;51.146;17.120;2023-09-19T06:56:15;19.81;76.25
66373;SHT30;53168;51.146;17.120;2023-09-19T06:58:45;19.83;75.98
66373;SHT30;53168;51.146;17.120;2023-09-19T07:01:15;19.85;75.90
66373;SHT30;53168;51.146;17.120;2023-09-19T07:03:47;19.89;75.89
66373;SHT30;53168;51.146;17.120;2023-09-19T07:06:17;19.98;75.82
66373;SHT30;53168;51.146;17.120;2023-09-19T07:08:47;20.08;75.62
66373;SHT30;53168;51.146;17.120;2023-09-19T07:11:20;20.14;75.24
66373;SHT30;53168;51.146;17.120;2023-09-19T07:13:51;20.25;75.16
66373;SHT30;53168;51.146;17.120;2023-09-19T07:16:21;20.36;75.12
66373;SHT30;53168;51.146;17.120;2023-09-19T07:19:06;20.48;74.80
66373;SHT30;53168;51.146;17.120;2023-09-19T07:21:39;20.58;74.48
66373;SHT30;53168;51.146;17.120;2023-09-19T07:24:28;20.66;74.42
66373;SHT30;53168;51.146;17.120;2023-09-19T07:27:36;20.81;74.15
66373;SHT30;53168;51.146;17.120;2023-09-19T07:30:08;21.01;73.78
66373;SHT30;53168;51.146;17.120;2023-09-19T07:32:40;21.17;73.16
66373;SHT30;53168;51.146;17.120;2023-09-19T07:35:10;21.25;72.75
66373;SHT30;53168;51.146;17.120;2023-09-19T07:37:43;21.27;72.62
66373;SHT30;53168;51.146;17.120;2023-09-19T07:40:18;21.30;72.48
66373;SHT30;53168;51.146;17.120;2023-09-19T07:42:49;21.28;71.81
66373;SHT30;53168;51.146;17.120;2023-09-19T07:45:19;21.28;71.83
66373;SHT30;53168;51.146;17.120;2023-09-19T07:47:50;21.27;71.36
66373;SHT30;53168;51.146;17.120;2023-09-19T07:50:20;21.29;71.39
66373;SHT30;53168;51.146;17.120;2023-09-19T07:52:51;21.33;70.79
66373;SHT30;53168;51.146;17.120;2023-09-19T07:55:21;21.28;70.80
66373;SHT30;53168;51.146;17.120;2023-09-19T07:57:53;21.30;71.15
66373;SHT30;53168;51.146;17.120;2023-09-19T08:00:23;21.35;70.86
66373;SHT30;53168;51.146;17.120;2023-09-19T08:02:53;21.38;70.77
66373;SHT30;53168;51.146;17.120;2023-09-19T08:05:32;21.39;70.61
66373;SHT30;53168;51.146;17.120;2023-09-19T08:08:01;21.39;70.69
66373;SHT30;53168;51.146;17.120;2023-09-19T08:10:32;21.42;70.55
66373;SHT30;53168;51.146;17.120;2023-09-19T08:13:04;21.43;70.46
66373;SHT30;53168;51.146;17.120;2023-09-19T08:15:35;21.42;70.14
66373;SHT30;53168;51.146;17.120;2023-09-19T08:18:13;21.43;70.08
66373;SHT30;53168;51.146;17.120;2023-09-19T08:20:48;21.40;69.86
66373;SHT30;53168;51.146;17.120;2023-09-19T08:23:20;21.36;69.87
66373;SHT30;53168;51.146;17.120;2023-09-19T08:25:50;21.38;69.93
66373;SHT30;53168;51.146;17.120;2023-09-19T08:28:24;21.41;69.46
66373;SHT30;53168;51.146;17.120;2023-09-19T08:30:54;21.41;69.35
66373;SHT30;53168;51.146;17.120;2023-09-19T08:33:26;21.45;69.41
66373;SHT30;53168;51.146;17.120;2023-09-19T08:35:57;21.47;69.40
66373;SHT30;53168;51.146;17.120;2023-09-19T08:38:26;21.48;68.99
66373;SHT30;53168;51.146;17.120;2023-09-19T08:41:07;21.44;69.05
66373;SHT30;53168;51.146;17.120;2023-09-19T08:43:37;21.41;68.86
66373;SHT30;53168;51.146;17.120;2023-09-19T08:46:11;21.35;68.80
66373;SHT30;53168;51.146;17.120;2023-09-19T08:48:49;21.33;68.71
66373;SHT30;53168;51.146;17.120;2023-09-19T08:51:30;21.37;68.72
66373;SHT30;53168;51.146;17.120;2023-09-19T08:54:22;21.41;68.54
66373;SHT30;53168;51.146;17.120;2023-09-19T08:56:56;21.42;68.47
66373;SHT30;53168;51.146;17.120;2023-09-19T08:59:31;21.40;68.41
66373;SHT30;53168;51.146;17.120;2023-09-19T09:02:07;21.33;68.25
66373;SHT30;53168;51.146;17.120;2023-09-19T09:04:42;21.29;68.08
66373;SHT30;53168;51.146;17.120;2023-09-19T09:07:14;21.22;67.94
66373;SHT30;53168;51.146;17.120;2023-09-19T09:09:46;21.12;67.89
66373;SHT30;53168;51.146;17.120;2023-09-19T09:12:16;21.06;68.00
66373;SHT30;53168;51.146;17.120;2023-09-19T09:14:47;21.00;67.99
66373;SHT30;53168;51.146;17.120;2023-09-19T09:17:18;20.94;68.04
66373;SHT30;53168;51.146;17.120;2023-09-19T09:19:48;20.97;68.14
66373;SHT30;53168;51.146;17.120;2023-09-19T09:22:20;20.97;68.00
66373;SHT30;53168;51.146;17.120;2023-09-19T09:24:54;20.99;68.00
66373;SHT30;53168;51.146;17.120;2023-09-19T09:27:26;21.03;67.97
66373;SHT30;53168;51.146;17.120;2023-09-19T09:29:56;21.06;67.72
66373;SHT30;53168;51.146;17.120;2023-09-19T09:32:27;21.07;67.62
66373;SHT30;53168;51.146;17.120;2023-09-19T09:35:06;21.14;67.82
66373;SHT30;53168;51.146;17.120;2023-09-19T09:37:44;21.28;67.72
66373;SHT30;53168;51.146;17.120;2023-09-19T09:40:15;21.41;67.52
66373;SHT30;53168;51.146;17.120;2023-09-19T09:42:52;21.64;67.32
66373;SHT30;53168;51.146;17.120;2023-09-19T09:45:27;21.93;67.09
66373;SHT30;53168;51.146;17.120;2023-09-19T09:48:06;22.23;66.58
66373;SHT30;53168;51.146;17.120;2023-09-19T09:50:48;22.40;65.62
66373;SHT30;53168;51.146;17.120;2023-09-19T09:53:25;22.45;65.61
66373;SHT30;53168;51.146;17.120;2023-09-19T09:56:02;22.45;65.42
66373;SHT30;53168;51.146;17.120;2023-09-19T09:58:49;22.52;65.29
66373;SHT30;53168;51.146;17.120;2023-09-19T10:05:20;22.83;64.69
66373;SHT30;53168;51.146;17.120;2023-09-19T10:08:21;22.83;64.19
66373;SHT30;53168;51.146;17.120;2023-09-19T10:26:39;22.91;63.74
66373;SHT30;53168;51.146;17.120;2023-09-19T10:48:12;22.28;62.78
66373;SHT30;53168;51.146;17.120;2023-09-19T10:54:53;22.93;62.30
66373;SHT30;53168;51.146;17.120;2023-09-19T10:57:34;23.01;62.07
66373;SHT30;53168;51.146;17.120;2023-09-19T11:00:11;22.91;62.03
66373;SHT30;53168;51.146;17.120;2023-09-19T11:03:20;22.85;61.90
66373;SHT30;53168;51.146;17.120;2023-09-19T11:06:04;22.90;61.83
66373;SHT30;53168;51.146;17.120;2023-09-19T11:09:02;22.82;60.28
66373;SHT30;53168;51.146;17.120;2023-09-19T11:12:02;23.06;59.25
66373;SHT30;53168;51.146;17.120;2023-09-19T11:14:42;23.35;58.67
66373;SHT30;53168;51.146;17.120;2023-09-19T11:17:45;23.60;57.88
66373;SHT30;53168;51.146;17.120;2023-09-19T11:20:35;23.77;58.05
66373;SHT30;53168;51.146;17.120;2023-09-19T12:12:12;25.51;51.87
66373;SHT30;53168;51.146;17.120;2023-09-19T12:14:55;26.14;51.85
66373;SHT30;53168;51.146;17.120;2023-09-19T12:17:38;26.71;49.85
66373;SHT30;53168;51.146;17.120;2023-09-19T12:20:13;26.97;49.36
66373;SHT30;53168;51.146;17.120;2023-09-19T12:22:48;26.99;48.99
66373;SHT30;53168;51.146;17.120;2023-09-19T12:25:25;27.02;47.66
66373;SHT30;53168;51.146;17.120;2023-09-19T12:28:23;27.00;48.16
66373;SHT30;53168;51.146;17.120;2023-09-19T12:31:23;27.34;47.28
66373;SHT30;53168;51.146;17.120;2023-09-19T12:34:04;27.38;47.14
66373;SHT30;53168;51.146;17.120;2023-09-19T12:36:46;27.49;46.65
66373;SHT30;53168;51.146;17.120;2023-09-19T12:40:06;27.65;45.55
66373;SHT30;53168;51.146;17.120;2023-09-19T12:43:02;27.59;45.47
66373;SHT30;53168;51.146;17.120;2023-09-19T12:55:33;27.02;44.75
66373;SHT30;53168;51.146;17.120;2023-09-19T12:58:21;26.69;44.96
66373;SHT30;53168;51.146;17.120;2023-09-19T13:04:55;27.27;43.70
66373;SHT30;53168;51.146;17.120;2023-09-19T13:07:45;27.78;43.92
66373;SHT30;53168;51.146;17.120;2023-09-19T13:11:04;28.58;43.32
66373;SHT30;53168;51.146;17.120;2023-09-19T13:13:45;29.11;42.40
66373;SHT30;53168;51.146;17.120;2023-09-19T13:16:27;29.30;41.73
66373;SHT30;53168;51.146;17.120;2023-09-19T13:19:03;29.47;41.56
66373;SHT30;53168;51.146;17.120;2023-09-19T13:21:40;29.56;40.56
66373;SHT30;53168;51.146;17.120;2023-09-19T13:24:25;29.47;40.46
66373;SHT30;53168;51.146;17.120;2023-09-19T13:27:32;29.50;39.67
66373;SHT30;53168;51.146;17.120;2023-09-19T14:36:05;29.42;36.39
66373;SHT30;53168;51.146;17.120;2023-09-19T14:38:42;29.22;36.75
66373;SHT30;53168;51.146;17.120;2023-09-19T14:41:16;28.88;37.05
66373;SHT30;53168;51.146;17.120;2023-09-19T14:43:51;28.97;36.91
66373;SHT30;53168;51.146;17.120;2023-09-19T14:46:30;28.20;37.65
66373;SHT30;53168;51.146;17.120;2023-09-19T14:49:14;27.31;38.44
66373;SHT30;53168;51.146;17.120;2023-09-19T14:51:49;26.48;39.23
66373;SHT30;53168;51.146;17.120;2023-09-19T14:54:25;25.80;39.97
66373;SHT30;53168;51.146;17.120;2023-09-19T15:03:58;24.68;41.87
66373;SHT30;53168;51.146;17.120;2023-09-19T15:06:44;24.49;42.20
66373;SHT30;53168;51.146;17.120;2023-09-19T15:09:34;24.31;42.63
66373;SHT30;53168;51.146;17.120;2023-09-19T15:12:52;24.18;43.12
66373;SHT30;53168;51.146;17.120;2023-09-19T15:15:57;24.02;43.64
66373;SHT30;53168;51.146;17.120;2023-09-19T15:19:28;23.78;44.21
66373;SHT30;53168;51.146;17.120;2023-09-19T15:22:41;23.61;44.62
66373;SHT30;53168;51.146;17.120;2023-09-19T15:25:49;23.55;44.80
66373;SHT30;53168;51.146;17.120;2023-09-19T15:29:05;23.62;44.99
66373;SHT30;53168;51.146;17.120;2023-09-19T15:32:23;23.73;45.08
66373;SHT30;53168;51.146;17.120;2023-09-19T15:35:45;24.23;44.95
66373;SHT30;53168;51.146;17.120;2023-09-19T16:38:51;22.62;47.08
66373;SHT30;53168;51.146;17.120;2023-09-19T16:41:40;22.40;47.48
66373;SHT30;53168;51.146;17.120;2023-09-19T16:44:17;22.17;47.83
66373;SHT30;53168;51.146;17.120;2023-09-19T16:46:57;21.99;48.09
66373;SHT30;53168;51.146;17.120;2023-09-19T16:49:41;21.83;48.41
66373;SHT30;53168;51.146;17.120;2023-09-19T16:52:16;21.67;48.82
66373;SHT30;53168;51.146;17.120;2023-09-19T16:55:05;21.51;49.18
66373;SHT30;53168;51.146;17.120;2023-09-19T16:57:49;21.35;49.35
66373;SHT30;53168;51.146;17.120;2023-09-19T17:00:25;21.22;49.75
66373;SHT30;53168;51.146;17.120;2023-09-19T17:03:03;21.08;50.14
66373;SHT30;53168;51.146;17.120;2023-09-19T17:05:59;20.95;50.42
66373;SHT30;53168;51.146;17.120;2023-09-19T17:08:35;20.86;50.75
66373;SHT30;53168;51.146;17.120;2023-09-19T17:11:11;20.76;51.06
66373;SHT30;53168;51.146;17.120;2023-09-19T17:13:49;20.67;51.21
66373;SHT30;53168;51.146;17.120;2023-09-19T17:16:25;20.57;51.47
66373;SHT30;53168;51.146;17.120;2023-09-19T17:19:03;20.49;51.60
66373;SHT30;53168;51.146;17.120;2023-09-19T17:21:37;20.39;51.90
66373;SHT30;53168;51.146;17.120;2023-09-19T17:24:11;20.26;52.18
66373;SHT30;53168;51.146;17.120;2023-09-19T17:26:46;20.12;52.44
66373;SHT30;53168;51.146;17.120;2023-09-19T17:29:25;19.99;52.67
66373;SHT30;53168;51.146;17.120;2023-09-19T17:35:22;19.74;53.27
66373;SHT30;53168;51.146;17.120;2023-09-19T17:43:10;19.45;54.06
66373;SHT30;53168;51.146;17.120;2023-09-19T17:52:44;19.20;54.77
66373;SHT30;53168;51.146;17.120;2023-09-19T17:55:21;19.15;54.99
66373;SHT30;53168;51.146;17.120;2023-09-19T17:57:58;19.08;55.23
66373;SHT30;53168;51.146;17.120;2023-09-19T18:00:37;19.04;55.44
66373;SHT30;53168;51.146;17.120;2023-09-19T18:03:13;19.00;55.66
66373;SHT30;53168;51.146;17.120;2023-09-19T18:05:53;18.98;55.79
66373;SHT30;53168;51.146;17.120;2023-09-19T18:55:16;18.31;59.12
66373;SHT30;53168;51.146;17.120;2023-09-19T19:01:51;18.07;59.68
66373;SHT30;53168;51.146;17.120;2023-09-19T19:04:27;17.97;59.79
66373;SHT30;53168;51.146;17.120;2023-09-19T19:11:28;17.75;60.43
66373;SHT30;53168;51.146;17.120;2023-09-19T19:14:03;17.62;60.72
66373;SHT30;53168;51.146;17.120;2023-09-19T19:20:05;17.34;61.28
66373;SHT30;53168;51.146;17.120;2023-09-19T19:23:24;17.23;61.63
66373;SHT30;53168;51.146;17.120;2023-09-19T19:26:17;17.10;62.10
66373;SHT30;53168;51.146;17.120;2023-09-19T19:28:53;17.01;62.21
66373;SHT30;53168;51.146;17.120;2023-09-19T19:31:26;16.93;62.32
66373;SHT30;53168;51.146;17.120;2023-09-19T19:39:49;16.67;62.97
66373;SHT30;53168;51.146;17.120;2023-09-19T19:42:21;16.61;63.35
66373;SHT30;53168;51.146;17.120;2023-09-19T19:44:52;16.54;63.38
66373;SHT30;53168;51.146;17.120;2023-09-19T19:47:27;16.45;63.56
66373;SHT30;53168;51.146;17.120;2023-09-19T19:49:59;16.39;63.96
66373;SHT30;53168;51.146;17.120;2023-09-19T19:52:35;16.35;64.01
66373;SHT30;53168;51.146;17.120;2023-09-19T19:55:20;16.31;64.17
66373;SHT30;53168;51.146;17.120;2023-09-19T19:57:57;16.25;64.47
66373;SHT30;53168;51.146;17.120;2023-09-19T20:00:33;16.21;64.54
66373;SHT30;53168;51.146;17.120;2023-09-19T20:03:13;16.16;64.69
66373;SHT30;53168;51.146;17.120;2023-09-19T20:05:54;16.10;65.03
66373;SHT30;53168;51.146;17.120;2023-09-19T20:08:51;16.05;65.18
66373;SHT30;53168;51.146;17.120;2023-09-19T20:11:21;16.01;65.41
66373;SHT30;53168;51.146;17.120;2023-09-19T20:14:02;15.98;65.65
66373;SHT30;53168;51.146;17.120;2023-09-19T20:16:51;15.94;65.64
66373;SHT30;53168;51.146;17.120;2023-09-19T20:50:32;15.56;67.33
66373;SHT30;53168;51.146;17.120;2023-09-19T20:53:08;15.53;67.54
66373;SHT30;53168;51.146;17.120;2023-09-19T20:55:42;15.47;67.81
66373;SHT30;53168;51.146;17.120;2023-09-19T20:58:31;15.44;67.95
66373;SHT30;53168;51.146;17.120;2023-09-19T21:01:10;15.40;68.11
66373;SHT30;53168;51.146;17.120;2023-09-19T21:03:58;15.38;68.25
66373;SHT30;53168;51.146;17.120;2023-09-19T21:06:32;15.35;68.40
66373;SHT30;53168;51.146;17.120;2023-09-19T21:09:09;15.32;68.42
66373;SHT30;53168;51.146;17.120;2023-09-19T21:11:46;15.29;68.63
66373;SHT30;53168;51.146;17.120;2023-09-19T21:14:29;15.25;68.81
66373;SHT30;53168;51.146;17.120;2023-09-19T21:17:07;15.23;69.06
66373;SHT30;53168;51.146;17.120;2023-09-19T21:19:50;15.19;69.17
66373;SHT30;53168;51.146;17.120;2023-09-19T21:22:35;15.17;69.31
66373;SHT30;53168;51.146;17.120;2023-09-19T21:25:17;15.13;69.46
66373;SHT30;53168;51.146;17.120;2023-09-19T21:27:52;15.11;69.49
66373;SHT30;53168;51.146;17.120;2023-09-19T21:31:00;15.06;69.50
66373;SHT30;53168;51.146;17.120;2023-09-19T21:33:47;15.04;69.67
66373;SHT30;53168;51.146;17.120;2023-09-19T21:36:36;15.01;69.69
66373;SHT30;53168;51.146;17.120;2023-09-19T21:39:16;14.99;69.82
66373;SHT30;53168;51.146;17.120;2023-09-19T21:42:17;14.96;70.02
66373;SHT30;53168;51.146;17.120;2023-09-19T21:45:02;14.96;70.27
66373;SHT30;53168;51.146;17.120;2023-09-19T21:47:43;14.95;70.33
66373;SHT30;53168;51.146;17.120;2023-09-19T21:50:32;14.94;70.59
66373;SHT30;53168;51.146;17.120;2023-09-19T21:53:15;14.92;70.59
66373;SHT30;53168;51.146;17.120;2023-09-19T21:56:06;14.89;70.62
66373;SHT30;53168;51.146;17.120;2023-09-19T21:58:48;14.88;70.73
66373;SHT30;53168;51.146;17.120;2023-09-19T22:01:28;14.88;70.90
66373;SHT30;53168;51.146;17.120;2023-09-19T22:04:11;14.89;71.09
66373;SHT30;53168;51.146;17.120;2023-09-19T22:06:56;14.88;71.01
66373;SHT30;53168;51.146;17.120;2023-09-19T22:09:30;14.87;71.17
66373;SHT30;53168;51.146;17.120;2023-09-19T22:12:05;14.84;71.12
66373;SHT30;53168;51.146;17.120;2023-09-19T22:14:41;14.80;71.23
66373;SHT30;53168;51.146;17.120;2023-09-19T22:17:15;14.78;71.40
66373;SHT30;53168;51.146;17.120;2023-09-19T22:19:52;14.75;71.61
66373;SHT30;53168;51.146;17.120;2023-09-19T22:22:25;14.73;71.63
66373;SHT30;53168;51.146;17.120;2023-09-19T22:25:03;14.70;71.70
66373;SHT30;53168;51.146;17.120;2023-09-19T22:27:40;14.69;71.84
66373;SHT30;53168;51.146;17.120;2023-09-19T22:30:15;14.65;71.90
66373;SHT30;53168;51.146;17.120;2023-09-19T22:32:50;14.61;72.01
66373;SHT30;53168;51.146;17.120;2023-09-19T22:35:24;14.55;72.01
66373;SHT30;53168;51.146;17.120;2023-09-19T22:38:00;14.49;72.14
66373;SHT30;53168;51.146;17.120;2023-09-19T22:40:45;14.44;72.26
66373;SHT30;53168;51.146;17.120;2023-09-19T22:43:23;14.39;72.29
66373;SHT30;53168;51.146;17.120;2023-09-19T22:46:03;14.32;72.46
66373;SHT30;53168;51.146;17.120;2023-09-19T22:48:39;14.26;72.63
66373;SHT30;53168;51.146;17.120;2023-09-19T22:51:14;14.21;72.67
66373;SHT30;53168;51.146;17.120;2023-09-19T22:53:54;14.15;72.72
66373;SHT30;53168;51.146;17.120;2023-09-19T22:56:30;14.11;72.76
66373;SHT30;53168;51.146;17.120;2023-09-19T22:59:05;14.07;72.80
66373;SHT30;53168;51.146;17.120;2023-09-19T23:01:48;14.02;72.86
66373;SHT30;53168;51.146;17.120;2023-09-19T23:04:24;13.97;72.97
66373;SHT30;53168;51.146;17.120;2023-09-19T23:06:58;13.93;73.04